Time;durP1;ratioP1;P1;durP2;ratioP2;P2;SDS_P1;SDS_P2;PMS_P1;PMS_P2;Temp;Humidity;BMP_temperature;BMP_pressure;BME280_temperature;BME280_humidity;BME280_pressure;Samples;Min_cycle;Max_cycle;Signal;HPM_P1;HPM_P2
2021/09/02 00:02:09;;;;;;;11.70;6.93;;;;;;;;;;4897413;29;20059;-69
2021/09/02 00:04:36;;;;;;;8.32;7.10;;;;;;;;;;4897551;29;20060;-69
2021/09/02 00:07:02;;;;;;;11.55;7.18;;;;;;;;;;4906494;29;20108;-69
2021/09/02 00:09:29;;;;;;;11.18;7.30;;;;;;;;;;4916396;29;20504;-69
2021/09/02 00:11:57;;;;;;;10.25;7.63;;;;;;;;;;4916561;29;20092;-69
2021/09/02 00:14:24;;;;;;;10.15;7.28;;;;;;;;;;4900987;29;20053;-69
2021/09/02 00:16:51;;;;;;;11.18;7.63;;;;;;;;;;4879000;29;20144;-68
2021/09/02 00:19:17;;;;;;;13.13;7.68;;;;;;;;;;4879358;29;20056;-69
2021/09/02 00:21:44;;;;;;;9.57;6.97;;;;;;;;;;4877448;29;20109;-68
2021/09/02 00:24:11;;;;;;;12.43;7.10;;;;;;;;;;4878742;29;20425;-68
2021/09/02 00:26:40;;;;;;;11.52;7.18;;;;;;;;;;4878469;29;20520;-68
2021/09/02 00:29:06;;;;;;;9.05;7.22;;;;;;;;;;4878702;29;20109;-68
2021/09/02 00:31:33;;;;;;;10.85;7.63;;;;;;;;;;4879797;29;20053;-68
2021/09/02 00:34:00;;;;;;;10.43;7.32;;;;;;;;;;4880039;29;20076;-68
2021/09/02 00:36:26;;;;;;;11.85;7.57;;;;;;;;;;4896259;29;20100;-68
2021/09/02 00:38:53;;;;;;;10.65;7.78;;;;;;;;;;4891224;29;20048;-68
2021/09/02 00:41:20;;;;;;;10.40;7.68;;;;;;;;;;4896107;29;20064;-68
2021/09/02 00:43:47;;;;;;;9.07;7.40;;;;;;;;;;4896083;29;20494;-68
2021/09/02 00:46:15;;;;;;;9.57;7.35;;;;;;;;;;4896302;29;20085;-69
2021/09/02 00:48:44;;;;;;;8.85;7.20;;;;;;;;;;4896032;29;20139;-68
2021/09/02 00:51:11;;;;;;;9.63;6.85;;;;;;;;;;4896156;29;20108;-68
2021/09/02 00:53:37;;;;;;;8.52;6.90;;;;;;;;;;4894778;29;20080;-68
2021/09/02 00:56:04;;;;;;;9.48;7.30;;;;;;;;;;4899559;29;20501;-68
2021/09/02 00:58:31;;;;;;;11.00;6.85;;;;;;;;;;4899328;29;20100;-68
2021/09/02 01:00:57;;;;;;;11.23;7.68;;;;;;;;;;4899553;29;20053;-68
2021/09/02 01:03:24;;;;;;;9.05;6.93;;;;;;;;;;4895674;29;20080;-68
2021/09/02 01:05:52;;;;;;;8.90;7.20;;;;;;;;;;4894850;29;20053;-68
2021/09/02 01:08:19;;;;;;;11.50;7.45;;;;;;;;;;4899385;29;20524;-68
2021/09/02 01:10:49;;;;;;;12.18;8.30;;;;;;;;;;4899342;29;20085;-68
2021/09/02 01:13:18;;;;;;;8.82;7.00;;;;;;;;;;4899121;29;20060;-68
2021/09/02 01:15:45;;;;;;;13.07;7.88;;;;;;;;;;4899198;29;20139;-68
2021/09/02 01:18:11;;;;;;;9.70;8.23;;;;;;;;;;4899160;29;20500;-68
2021/09/02 01:20:38;;;;;;;9.77;7.43;;;;;;;;;;4899067;29;20057;-68
2021/09/02 01:23:06;;;;;;;9.18;7.07;;;;;;;;;;4898930;29;20112;-68
2021/09/02 01:25:42;;;;;;;10.05;7.97;;;;;;;;;;4898926;29;20060;-68
2021/09/02 01:28:12;;;;;;;10.80;7.57;;;;;;;;;;4899085;29;20419;-68
2021/09/02 01:30:41;;;;;;;11.10;7.78;;;;;;;;;;4898758;29;20287;-68
2021/09/02 01:33:08;;;;;;;7.65;6.85;;;;;;;;;;4898776;29;20052;-68
2021/09/02 01:35:35;;;;;;;10.80;7.30;;;;;;;;;;4898689;29;20060;-68
2021/09/02 01:38:05;;;;;;;10.65;6.85;;;;;;;;;;4899030;29;20087;-68
2021/09/02 01:40:34;;;;;;;8.23;6.90;;;;;;;;;;4898628;29;20591;-69
2021/09/02 01:43:02;;;;;;;11.13;7.85;;;;;;;;;;4883258;29;20112;-68
2021/09/02 01:45:29;;;;;;;10.50;7.03;;;;;;;;;;4878667;29;20581;-68
2021/09/02 01:47:58;;;;;;;9.27;6.75;;;;;;;;;;4880016;29;20053;-68
2021/09/02 01:50:26;;;;;;;9.35;7.22;;;;;;;;;;4880122;29;20057;-68
2021/09/02 01:52:55;;;;;;;10.30;7.55;;;;;;;;;;4879597;29;20113;-68
2021/09/02 01:55:22;;;;;;;9.50;7.63;;;;;;;;;;4879820;29;20103;-68
2021/09/02 01:57:50;;;;;;;10.82;8.00;;;;;;;;;;4878499;29;20101;-68
2021/09/02 02:00:17;;;;;;;9.20;6.95;;;;;;;;;;4880048;29;20199;-68
2021/09/02 02:02:43;;;;;;;10.18;7.80;;;;;;;;;;4879399;29;20473;-68
2021/09/02 02:08:58;;;;;;;12.07;7.90;;;;;;;;;;4918724;23;20515;-66
2021/09/02 02:11:25;;;;;;;10.43;8.30;;;;;;;;;;4881813;29;20052;-67
2021/09/02 02:13:52;;;;;;;9.27;7.10;;;;;;;;;;4881486;29;20179;-67
2021/09/02 02:16:18;;;;;;;10.32;7.00;;;;;;;;;;4898335;29;20056;-67
2021/09/02 02:18:45;;;;;;;10.00;6.82;;;;;;;;;;4898155;29;20052;-68
2021/09/02 02:21:11;;;;;;;8.93;7.07;;;;;;;;;;4881834;29;20496;-68
2021/09/02 02:23:38;;;;;;;9.18;7.20;;;;;;;;;;4897842;29;20202;-67
2021/09/02 02:26:05;;;;;;;8.43;7.05;;;;;;;;;;4898129;29;20472;-67
2021/09/02 02:28:31;;;;;;;9.10;7.60;;;;;;;;;;4897811;29;20092;-68
2021/09/02 02:30:58;;;;;;;8.38;6.65;;;;;;;;;;4898037;29;20104;-67
2021/09/02 02:33:25;;;;;;;10.57;7.40;;;;;;;;;;4896720;29;20059;-67
2021/09/02 02:35:52;;;;;;;11.07;7.43;;;;;;;;;;4896832;29;20064;-67
2021/09/02 02:38:19;;;;;;;10.52;7.82;;;;;;;;;;4897513;29;20056;-67
2021/09/02 02:40:45;;;;;;;11.20;7.75;;;;;;;;;;4897794;29;20112;-67
2021/09/02 02:43:13;;;;;;;11.95;7.30;;;;;;;;;;4896369;29;20052;-67
2021/09/02 02:45:39;;;;;;;10.75;7.60;;;;;;;;;;4897889;29;20064;-67
2021/09/02 02:48:06;;;;;;;11.80;8.80;;;;;;;;;;4897532;29;20045;-67
2021/09/02 02:50:33;;;;;;;10.63;7.25;;;;;;;;;;4897491;29;20108;-68
2021/09/02 02:52:59;;;;;;;9.68;7.82;;;;;;;;;;4896493;29;20052;-67
2021/09/02 02:55:26;;;;;;;12.18;7.93;;;;;;;;;;4897558;29;20113;-67
2021/09/02 02:57:54;;;;;;;10.73;8.13;;;;;;;;;;4897420;29;20044;-68
2021/09/02 03:00:20;;;;;;;10.35;8.20;;;;;;;;;;4897566;29;20048;-67
2021/09/02 03:02:47;;;;;;;14.95;7.38;;;;;;;;;;4896137;29;20152;-68
2021/09/02 03:05:14;;;;;;;10.57;6.78;;;;;;;;;;4896216;29;20522;-67
2021/09/02 03:07:40;;;;;;;10.15;7.35;;;;;;;;;;4895963;29;20052;-68
2021/09/02 03:10:08;;;;;;;9.68;7.00;;;;;;;;;;4897343;29;20492;-68
2021/09/02 03:12:35;;;;;;;9.75;7.10;;;;;;;;;;4880327;29;20104;-67
2021/09/02 03:15:02;;;;;;;12.50;7.93;;;;;;;;;;4880986;29;20052;-67
2021/09/02 03:17:30;;;;;;;13.27;7.60;;;;;;;;;;4896622;29;20060;-67
2021/09/02 03:19:56;;;;;;;11.48;7.80;;;;;;;;;;4897248;29;20112;-67
2021/09/02 03:22:23;;;;;;;11.25;7.78;;;;;;;;;;4896132;29;20052;-68
2021/09/02 03:24:49;;;;;;;9.43;7.25;;;;;;;;;;4896243;29;20629;-69
2021/09/02 03:27:16;;;;;;;10.82;7.13;;;;;;;;;;4895716;29;20121;-67
2021/09/02 03:29:43;;;;;;;11.45;7.50;;;;;;;;;;4877302;29;20113;-68
2021/09/02 03:32:09;;;;;;;10.88;6.88;;;;;;;;;;4878207;29;20436;-69
2021/09/02 03:34:36;;;;;;;11.15;7.72;;;;;;;;;;4878398;29;20057;-68
2021/09/02 03:37:03;;;;;;;10.68;7.18;;;;;;;;;;4886260;29;20052;-68
2021/09/02 03:39:30;;;;;;;10.30;7.00;;;;;;;;;;4898771;29;20049;-68
2021/09/02 03:41:56;;;;;;;11.88;7.70;;;;;;;;;;4881981;29;20504;-67
2021/09/02 03:44:23;;;;;;;10.63;7.05;;;;;;;;;;4882179;29;20052;-68
2021/09/02 03:46:49;;;;;;;11.85;7.75;;;;;;;;;;4897016;29;20056;-68
2021/09/02 03:49:16;;;;;;;13.90;7.13;;;;;;;;;;4880257;29;20468;-66
2021/09/02 03:51:43;;;;;;;9.75;7.25;;;;;;;;;;4895630;29;20503;-67
2021/09/02 03:54:10;;;;;;;10.48;7.07;;;;;;;;;;4896708;29;20055;-67
2021/09/02 03:56:36;;;;;;;10.90;7.00;;;;;;;;;;4896584;29;20060;-68
2021/09/02 03:59:03;;;;;;;9.50;6.70;;;;;;;;;;4895384;29;20104;-66
2021/09/02 04:01:30;;;;;;;15.68;8.85;;;;;;;;;;4896691;29;20049;-68
2021/09/02 04:03:57;;;;;;;12.48;7.35;;;;;;;;;;4896541;29;20408;-67
2021/09/02 04:06:23;;;;;;;10.13;7.40;;;;;;;;;;4896547;29;20563;-66
2021/09/02 04:08:50;;;;;;;10.50;7.28;;;;;;;;;;4896527;29;20560;-67
2021/09/02 04:11:17;;;;;;;11.55;7.10;;;;;;;;;;4895480;29;20053;-67
2021/09/02 04:13:43;;;;;;;10.55;7.05;;;;;;;;;;4896153;29;20056;-67
2021/09/02 04:16:10;;;;;;;10.40;7.57;;;;;;;;;;4896327;29;20057;-67
2021/09/02 04:18:37;;;;;;;11.90;7.88;;;;;;;;;;4895052;29;20556;-68
2021/09/02 04:21:06;;;;;;;11.75;7.35;;;;;;;;;;4896338;29;20100;-67
2021/09/02 04:23:33;;;;;;;11.68;7.28;;;;;;;;;;4896382;29;20053;-67
2021/09/02 04:26:00;;;;;;;11.05;7.60;;;;;;;;;;4894656;29;20504;-67
2021/09/02 04:28:26;;;;;;;9.65;7.47;;;;;;;;;;4895216;29;20049;-67
2021/09/02 04:30:53;;;;;;;11.88;8.32;;;;;;;;;;4900102;29;20057;-67
2021/09/02 04:33:20;;;;;;;10.38;7.88;;;;;;;;;;4898797;29;20061;-67
2021/09/02 04:35:46;;;;;;;11.13;8.10;;;;;;;;;;4898959;29;20052;-67
2021/09/02 04:38:17;;;;;;;10.45;7.65;;;;;;;;;;4898918;29;20057;-67
2021/09/02 04:40:44;;;;;;;10.18;7.75;;;;;;;;;;4884155;29;20100;-67
2021/09/02 04:43:11;;;;;;;13.00;7.93;;;;;;;;;;4883370;29;20111;-68
2021/09/02 04:45:37;;;;;;;12.27;8.48;;;;;;;;;;4879769;29;20383;-68
2021/09/02 04:48:21;;;;;;;13.75;8.52;;;;;;;;;;4888235;29;20051;-67
2021/09/02 04:50:49;;;;;;;11.18;8.07;;;;;;;;;;4899858;29;20274;-68
2021/09/02 04:53:17;;;;;;;11.07;7.50;;;;;;;;;;4869158;29;20056;-67
2021/09/02 04:55:43;;;;;;;11.48;7.28;;;;;;;;;;4917385;29;20052;-67
2021/09/02 04:58:12;;;;;;;11.93;6.97;;;;;;;;;;4918203;29;20557;-67
2021/09/02 05:00:39;;;;;;;11.15;8.77;;;;;;;;;;4901436;29;20481;-67
2021/09/02 05:03:07;;;;;;;9.18;7.60;;;;;;;;;;4897685;29;20061;-67
2021/09/02 05:05:34;;;;;;;8.57;6.95;;;;;;;;;;4897659;29;20060;-68
2021/09/02 05:08:01;;;;;;;10.65;7.30;;;;;;;;;;4899245;29;20115;-67
2021/09/02 05:10:28;;;;;;;8.80;7.18;;;;;;;;;;4910038;29;20060;-67
2021/09/02 05:12:54;;;;;;;12.45;6.95;;;;;;;;;;4897631;29;20104;-68
2021/09/02 05:15:21;;;;;;;13.15;8.18;;;;;;;;;;4897871;29;20053;-67
2021/09/02 05:17:48;;;;;;;13.43;8.82;;;;;;;;;;4899133;29;20473;-67
2021/09/02 05:20:15;;;;;;;11.90;8.40;;;;;;;;;;4899366;29;20469;-67
2021/09/02 05:22:44;;;;;;;10.75;8.20;;;;;;;;;;4894025;29;20060;-67
2021/09/02 05:25:11;;;;;;;13.13;9.55;;;;;;;;;;4911442;29;20119;-67
2021/09/02 05:27:38;;;;;;;11.35;8.07;;;;;;;;;;4894217;29;20104;-67
2021/09/02 05:30:07;;;;;;;12.27;8.35;;;;;;;;;;4863617;29;20449;-66
2021/09/02 05:32:34;;;;;;;11.30;8.57;;;;;;;;;;4880058;29;20113;-67
2021/09/02 05:35:01;;;;;;;12.60;8.25;;;;;;;;;;4880270;29;20468;-67
2021/09/02 05:37:29;;;;;;;15.02;9.68;;;;;;;;;;4863672;29;20061;-66
2021/09/02 05:39:55;;;;;;;10.73;8.45;;;;;;;;;;4888876;29;20499;-65
2021/09/02 05:42:22;;;;;;;12.90;8.32;;;;;;;;;;4916200;29;20059;-66
2021/09/02 05:44:49;;;;;;;13.57;8.57;;;;;;;;;;4916466;29;20056;-66
2021/09/02 05:47:16;;;;;;;10.23;9.02;;;;;;;;;;4914153;29;20128;-66
2021/09/02 05:49:42;;;;;;;9.40;7.47;;;;;;;;;;4897426;29;20100;-65
2021/09/02 05:52:09;;;;;;;12.88;7.18;;;;;;;;;;4898547;29;20134;-65
2021/09/02 05:54:36;;;;;;;10.75;7.93;;;;;;;;;;4881041;29;20057;-66
2021/09/02 05:57:03;;;;;;;9.70;7.72;;;;;;;;;;4895265;29;20061;-66
2021/09/02 05:59:30;;;;;;;11.90;7.40;;;;;;;;;;4896244;29;20052;-66
2021/09/02 06:01:56;;;;;;;11.10;7.28;;;;;;;;;;4895406;29;20056;-66
2021/09/02 06:04:23;;;;;;;15.70;8.75;;;;;;;;;;4896208;29;20263;-66
2021/09/02 06:06:50;;;;;;;10.73;8.02;;;;;;;;;;4896044;29;20052;-66
2021/09/02 06:09:16;;;;;;;10.48;7.68;;;;;;;;;;4896100;29;20123;-66
2021/09/02 06:11:44;;;;;;;10.68;7.53;;;;;;;;;;4895061;29;20134;-66
2021/09/02 06:14:11;;;;;;;10.00;7.88;;;;;;;;;;4895031;29;20052;-66
2021/09/02 06:16:37;;;;;;;9.52;7.88;;;;;;;;;;4895034;29;20120;-66
2021/09/02 06:19:04;;;;;;;11.50;9.18;;;;;;;;;;4895678;29;20052;-67
2021/09/02 06:21:30;;;;;;;11.68;8.88;;;;;;;;;;4894403;29;20100;-67
2021/09/02 06:23:57;;;;;;;12.65;10.32;;;;;;;;;;4894032;29;20104;-66
2021/09/02 06:26:24;;;;;;;13.75;8.80;;;;;;;;;;4895993;29;20052;-66
2021/09/02 06:28:50;;;;;;;11.70;9.10;;;;;;;;;;4895844;29;20057;-67
2021/09/02 06:31:19;;;;;;;14.35;9.57;;;;;;;;;;4894533;29;20151;-67
2021/09/02 06:33:45;;;;;;;12.05;9.88;;;;;;;;;;4894638;29;20321;-66
2021/09/02 06:36:12;;;;;;;12.20;9.38;;;;;;;;;;4895260;29;20056;-67
2021/09/02 06:38:39;;;;;;;12.02;9.20;;;;;;;;;;4891308;29;20063;-67
2021/09/02 06:41:05;;;;;;;14.38;9.70;;;;;;;;;;4906258;29;20063;-67
2021/09/02 06:43:32;;;;;;;12.05;9.15;;;;;;;;;;4912317;29;20079;-67
2021/09/02 06:45:58;;;;;;;13.07;9.95;;;;;;;;;;4895779;29;20049;-67
2021/09/02 06:48:25;;;;;;;12.15;8.80;;;;;;;;;;4895550;29;20538;-67
2021/09/02 06:50:52;;;;;;;10.50;8.77;;;;;;;;;;4895532;29;20061;-67
2021/09/02 06:53:18;;;;;;;12.50;9.70;;;;;;;;;;4894585;29;20056;-66
2021/09/02 06:55:45;;;;;;;14.50;10.52;;;;;;;;;;4898007;29;20378;-66
2021/09/02 06:58:12;;;;;;;11.30;8.82;;;;;;;;;;4914509;29;20547;-66
2021/09/02 07:00:38;;;;;;;12.52;9.10;;;;;;;;;;4914237;29;20082;-66
2021/09/02 07:03:05;;;;;;;12.50;9.43;;;;;;;;;;4900205;29;20052;-66
2021/09/02 07:05:32;;;;;;;12.80;9.02;;;;;;;;;;4889190;29;20052;-68
2021/09/02 07:07:59;;;;;;;10.57;7.95;;;;;;;;;;4881354;29;20147;-67
2021/09/02 07:10:41;;;;;;;11.80;8.82;;;;;;;;;;4884935;29;20071;-67
2021/09/02 07:13:09;;;;;;;14.50;9.93;;;;;;;;;;4899401;29;20045;-69
2021/09/02 07:15:35;;;;;;;12.30;8.98;;;;;;;;;;4879651;29;20105;-69
2021/09/02 07:18:02;;;;;;;12.65;9.50;;;;;;;;;;4883567;29;20109;-69
2021/09/02 07:20:30;;;;;;;11.48;8.60;;;;;;;;;;4880066;29;20338;-69
2021/09/02 07:22:56;;;;;;;11.55;8.88;;;;;;;;;;4886287;29;20064;-69
2021/09/02 07:25:23;;;;;;;11.82;8.70;;;;;;;;;;4881795;29;20053;-69
2021/09/02 07:27:50;;;;;;;11.90;8.77;;;;;;;;;;4881760;29;20056;-69
2021/09/02 07:30:16;;;;;;;12.80;8.32;;;;;;;;;;4880965;29;20405;-67
2021/09/02 07:32:43;;;;;;;11.57;8.75;;;;;;;;;;4898559;29;20053;-69
2021/09/02 07:35:10;;;;;;;11.73;8.23;;;;;;;;;;4898789;29;20056;-68
2021/09/02 07:37:37;;;;;;;10.43;7.00;;;;;;;;;;4885435;29;20052;-68
2021/09/02 07:40:04;;;;;;;10.38;7.35;;;;;;;;;;4880938;29;20048;-68
2021/09/02 07:42:31;;;;;;;13.63;7.97;;;;;;;;;;4879882;29;20403;-69
2021/09/02 07:44:58;;;;;;;11.55;7.35;;;;;;;;;;4884010;29;20060;-68
2021/09/02 07:47:25;;;;;;;9.70;7.43;;;;;;;;;;4879748;29;20080;-69
2021/09/02 07:49:52;;;;;;;9.45;6.80;;;;;;;;;;4897653;29;20117;-69
2021/09/02 07:52:19;;;;;;;8.38;6.90;;;;;;;;;;4880894;29;20106;-67
2021/09/02 07:54:45;;;;;;;10.80;7.72;;;;;;;;;;4882701;29;20129;-67
2021/09/02 07:57:12;;;;;;;11.38;6.60;;;;;;;;;;4883732;29;20099;-67
2021/09/02 07:59:40;;;;;;;8.68;6.45;;;;;;;;;;4882671;29;20115;-67
2021/09/02 08:02:06;;;;;;;10.93;7.55;;;;;;;;;;4895113;29;20064;-69
2021/09/02 08:04:33;;;;;;;8.57;6.18;;;;;;;;;;4901237;29;20053;-69
2021/09/02 08:07:00;;;;;;;9.70;7.40;;;;;;;;;;4883619;29;20097;-68
2021/09/02 08:09:27;;;;;;;7.38;6.18;;;;;;;;;;4908902;23;20051;-66
2021/09/02 08:11:54;;;;;;;8.77;7.20;;;;;;;;;;4905977;29;20453;-66
2021/09/02 08:14:21;;;;;;;7.63;6.35;;;;;;;;;;4907407;29;20048;-66
2021/09/02 08:16:47;;;;;;;7.72;6.28;;;;;;;;;;4906682;29;20143;-66
2021/09/02 08:19:14;;;;;;;8.60;5.88;;;;;;;;;;4906345;29;20051;-67
2021/09/02 08:21:41;;;;;;;9.90;6.40;;;;;;;;;;4905692;29;20088;-66
2021/09/02 08:24:08;;;;;;;8.82;6.22;;;;;;;;;;4905530;29;20120;-66
2021/09/02 08:26:35;;;;;;;7.20;6.00;;;;;;;;;;4906032;29;20111;-66
2021/09/02 08:29:01;;;;;;;9.50;6.40;;;;;;;;;;4904896;29;20049;-67
2021/09/02 08:31:28;;;;;;;8.57;5.93;;;;;;;;;;4905843;29;20056;-67
2021/09/02 08:33:55;;;;;;;7.63;5.93;;;;;;;;;;4908229;29;20139;-66
2021/09/02 08:36:22;;;;;;;8.75;5.80;;;;;;;;;;4909409;29;20619;-66
2021/09/02 08:38:48;;;;;;;9.13;6.97;;;;;;;;;;4919533;29;20100;-66
2021/09/02 08:41:16;;;;;;;7.55;5.75;;;;;;;;;;4906788;29;20575;-66
2021/09/02 08:43:44;;;;;;;10.13;6.22;;;;;;;;;;4905497;29;20056;-67
2021/09/02 08:46:31;;;;;;;8.50;5.85;;;;;;;;;;4905272;29;20099;-67
2021/09/02 08:48:59;;;;;;;10.15;5.68;;;;;;;;;;4906221;29;20657;-67
2021/09/02 08:51:26;;;;;;;7.20;5.57;;;;;;;;;;4906432;29;20492;-66
2021/09/02 08:53:53;;;;;;;7.38;5.38;;;;;;;;;;4889961;29;20096;-66
2021/09/02 08:56:20;;;;;;;6.82;5.85;;;;;;;;;;4903934;29;20457;-66
2021/09/02 08:58:47;;;;;;;9.68;6.55;;;;;;;;;;4910324;29;20104;-67
2021/09/02 09:01:14;;;;;;;7.53;5.22;;;;;;;;;;4905552;29;20057;-67
2021/09/02 09:03:47;;;;;;;7.75;5.53;;;;;;;;;;4905829;29;20048;-68
2021/09/02 09:06:29;;;;;;;9.38;5.93;;;;;;;;;;4907446;29;20057;-68
2021/09/02 09:08:55;;;;;;;7.00;5.90;;;;;;;;;;4906317;29;20064;-68
2021/09/02 09:11:25;;;;;;;7.07;5.43;;;;;;;;;;4907511;29;20123;-68
2021/09/02 09:14:11;;;;;;;7.13;5.38;;;;;;;;;;4905676;29;20139;-68
2021/09/02 09:16:44;;;;;;;8.60;5.50;;;;;;;;;;4906604;29;20061;-68
2021/09/02 09:19:12;;;;;;;7.18;5.03;;;;;;;;;;4908091;29;20052;-68
2021/09/02 09:21:56;;;;;;;6.20;5.03;;;;;;;;;;4920370;29;20048;-68
2021/09/02 09:24:23;;;;;;;7.55;5.30;;;;;;;;;;4905374;29;20056;-68
2021/09/02 09:26:49;;;;;;;8.38;6.13;;;;;;;;;;4906290;29;20103;-68
2021/09/02 09:29:17;;;;;;;8.18;4.63;;;;;;;;;;4918495;29;20460;-68
2021/09/02 09:31:44;;;;;;;6.80;6.10;;;;;;;;;;4905313;29;20052;-68
2021/09/02 09:34:11;;;;;;;8.23;5.82;;;;;;;;;;4905462;29;20064;-68
2021/09/02 09:36:39;;;;;;;8.55;5.57;;;;;;;;;;4905202;29;20052;-68
2021/09/02 09:39:11;;;;;;;6.10;4.78;;;;;;;;;;4904959;29;20048;-68
2021/09/02 09:41:40;;;;;;;6.57;4.63;;;;;;;;;;4907237;29;20155;-68
2021/09/02 09:44:25;;;;;;;6.72;5.20;;;;;;;;;;4905844;29;20059;-66
2021/09/02 09:47:04;;;;;;;8.85;5.30;;;;;;;;;;4906174;29;20056;-66
2021/09/02 09:49:58;;;;;;;5.93;4.63;;;;;;;;;;4905396;29;20050;-68
2021/09/02 09:52:27;;;;;;;5.93;4.68;;;;;;;;;;4904088;29;20094;-68
2021/09/02 09:55:08;;;;;;;7.13;5.32;;;;;;;;;;4905751;29;20052;-68
2021/09/02 09:57:36;;;;;;;6.22;4.90;;;;;;;;;;4906573;29;20135;-68
2021/09/02 10:00:04;;;;;;;6.70;4.95;;;;;;;;;;4910203;29;20315;-66
2021/09/02 10:02:31;;;;;;;6.75;5.72;;;;;;;;;;4905859;29;20059;-66
2021/09/02 10:04:58;;;;;;;5.63;4.90;;;;;;;;;;4898271;29;20083;-66
2021/09/02 10:07:25;;;;;;;8.05;5.60;;;;;;;;;;4897637;29;20104;-66
2021/09/02 10:09:52;;;;;;;9.50;4.97;;;;;;;;;;4915889;29;20107;-68
2021/09/02 10:12:19;;;;;;;5.22;4.72;;;;;;;;;;4915946;29;20056;-68
2021/09/02 10:14:47;;;;;;;6.07;4.85;;;;;;;;;;4916104;29;20107;-68
2021/09/02 10:17:15;;;;;;;7.53;4.72;;;;;;;;;;4915992;29;20400;-68
2021/09/02 10:19:41;;;;;;;6.55;5.07;;;;;;;;;;4898579;29;20484;-68
2021/09/02 10:22:08;;;;;;;10.13;5.32;;;;;;;;;;4866202;29;20057;-68
2021/09/02 10:24:42;;;;;;;6.43;4.72;;;;;;;;;;4898031;29;20115;-68
2021/09/02 10:27:17;;;;;;;6.55;4.68;;;;;;;;;;4908947;29;20052;-68
2021/09/02 10:29:45;;;;;;;5.85;4.30;;;;;;;;;;4916893;29;20084;-68
2021/09/02 10:32:24;;;;;;;6.80;4.88;;;;;;;;;;4917589;29;20052;-68
2021/09/02 10:34:52;;;;;;;5.15;4.63;;;;;;;;;;4917217;29;20051;-68
2021/09/02 10:37:33;;;;;;;6.43;5.15;;;;;;;;;;4903143;29;20048;-68
2021/09/02 10:40:08;;;;;;;6.00;5.35;;;;;;;;;;4898080;29;20055;-68
2021/09/02 10:42:47;;;;;;;6.57;4.93;;;;;;;;;;4897516;29;20104;-68
2021/09/02 10:45:29;;;;;;;5.43;4.85;;;;;;;;;;4897888;29;20064;-68
2021/09/02 10:48:07;;;;;;;6.68;4.90;;;;;;;;;;4899097;29;20520;-68
2021/09/02 10:50:42;;;;;;;9.07;4.72;;;;;;;;;;4897893;29;20052;-68
2021/09/02 10:53:16;;;;;;;7.88;4.85;;;;;;;;;;4897558;29;20567;-67
2021/09/02 10:55:56;;;;;;;4.95;4.45;;;;;;;;;;4897947;29;20116;-67
2021/09/02 10:58:41;;;;;;;6.40;5.07;;;;;;;;;;4916237;29;20119;-68
2021/09/02 11:01:22;;;;;;;6.70;4.68;;;;;;;;;;4916329;29;20052;-68
2021/09/02 11:03:51;;;;;;;7.88;5.25;;;;;;;;;;4916096;29;20048;-68
2021/09/02 11:06:17;;;;;;;8.18;5.00;;;;;;;;;;4911438;29;20044;-68
2021/09/02 11:08:44;;;;;;;6.28;4.70;;;;;;;;;;4897370;29;20480;-68
2021/09/02 11:11:15;;;;;;;4.95;4.32;;;;;;;;;;4897618;29;20100;-68
2021/09/02 11:13:43;;;;;;;11.45;5.03;;;;;;;;;;4897013;29;20076;-68
2021/09/02 11:16:12;;;;;;;5.65;4.47;;;;;;;;;;4900677;29;20044;-68
2021/09/02 11:18:42;;;;;;;5.28;4.28;;;;;;;;;;4915994;29;20431;-68
2021/09/02 11:21:23;;;;;;;5.07;4.57;;;;;;;;;;4916139;29;20044;-68
2021/09/02 11:24:08;;;;;;;8.55;4.60;;;;;;;;;;4915939;29;20056;-68
2021/09/02 11:26:42;;;;;;;5.00;3.95;;;;;;;;;;4908697;29;20056;-68
2021/09/02 11:29:22;;;;;;;6.68;4.43;;;;;;;;;;4897106;29;20088;-68
2021/09/02 11:32:10;;;;;;;7.07;4.28;;;;;;;;;;4897033;29;20049;-68
2021/09/02 11:34:38;;;;;;;4.85;4.35;;;;;;;;;;4896988;29;20052;-68
2021/09/02 11:37:05;;;;;;;6.82;4.88;;;;;;;;;;4906071;29;20064;-68
2021/09/02 11:39:42;;;;;;;4.90;4.40;;;;;;;;;;4915454;29;20629;-68
2021/09/02 11:42:10;;;;;;;5.40;4.38;;;;;;;;;;4914402;29;20104;-68
2021/09/02 11:44:38;;;;;;;4.30;3.85;;;;;;;;;;4915570;29;20056;-68
2021/09/02 11:47:10;;;;;;;5.00;4.28;;;;;;;;;;4905429;29;20052;-68
2021/09/02 11:49:37;;;;;;;8.70;4.28;;;;;;;;;;4896261;29;20060;-75
2021/09/02 11:52:05;;;;;;;5.20;4.28;;;;;;;;;;4895820;29;20120;-68
2021/09/02 11:54:33;;;;;;;4.63;4.13;;;;;;;;;;4896718;29;20052;-69
2021/09/02 11:57:01;;;;;;;5.00;4.25;;;;;;;;;;4905832;29;20124;-67
2021/09/02 11:59:27;;;;;;;6.80;4.63;;;;;;;;;;4915410;29;20056;-66
2021/09/02 12:01:55;;;;;;;6.30;4.22;;;;;;;;;;4915118;29;20044;-66
2021/09/02 12:04:28;;;;;;;5.30;4.15;;;;;;;;;;4914210;29;20431;-66
2021/09/02 12:06:57;;;;;;;5.65;4.25;;;;;;;;;;4906380;29;20048;-66
2021/09/02 12:09:32;;;;;;;6.07;3.95;;;;;;;;;;4896359;29;20064;-66
2021/09/02 12:11:59;;;;;;;6.25;4.00;;;;;;;;;;4896668;29;20068;-66
2021/09/02 12:14:28;;;;;;;4.22;3.75;;;;;;;;;;4896438;29;20118;-66
2021/09/02 12:17:01;;;;;;;6.72;3.90;;;;;;;;;;4904415;29;20051;-66
2021/09/02 12:19:28;;;;;;;5.07;4.25;;;;;;;;;;4915223;29;20052;-66
2021/09/02 12:22:11;;;;;;;5.88;3.72;;;;;;;;;;4915142;29;20119;-66
2021/09/02 12:24:38;;;;;;;5.65;3.58;;;;;;;;;;4915233;29;20052;-66
2021/09/02 12:27:04;;;;;;;4.70;3.90;;;;;;;;;;4905759;29;20112;-66
2021/09/02 12:29:31;;;;;;;4.57;3.60;;;;;;;;;;4896307;29;20092;-66
2021/09/02 12:31:58;;;;;;;6.15;3.35;;;;;;;;;;4896129;29;20548;-66
2021/09/02 12:34:27;;;;;;;4.55;3.63;;;;;;;;;;4897772;29;20052;-68
2021/09/02 12:37:13;;;;;;;6.22;3.83;;;;;;;;;;4911374;29;20048;-66
2021/09/02 12:39:53;;;;;;;5.63;3.67;;;;;;;;;;4902464;29;20048;-67
2021/09/02 12:42:26;;;;;;;4.72;3.88;;;;;;;;;;4903699;29;20063;-67
2021/09/02 12:45:09;;;;;;;8.95;3.75;;;;;;;;;;4900387;29;20100;-68
2021/09/02 12:47:36;;;;;;;3.95;3.22;;;;;;;;;;4907466;29;20064;-67
2021/09/02 12:50:16;;;;;;;4.43;3.60;;;;;;;;;;4900453;29;20123;-67
2021/09/02 12:52:43;;;;;;;4.03;3.42;;;;;;;;;;4901767;29;20052;-68
2021/09/02 12:55:23;;;;;;;5.43;3.80;;;;;;;;;;4907177;29;20040;-67
2021/09/02 12:57:51;;;;;;;3.92;3.53;;;;;;;;;;4902626;29;20595;-68
2021/09/02 13:00:21;;;;;;;6.90;3.60;;;;;;;;;;4904138;29;20464;-68
2021/09/02 13:02:49;;;;;;;5.40;3.45;;;;;;;;;;4905574;29;20096;-68
2021/09/02 13:05:17;;;;;;;8.32;4.28;;;;;;;;;;4910718;29;20062;-73
2021/09/02 13:07:44;;;;;;;4.70;3.60;;;;;;;;;;4909684;29;20048;-73
2021/09/02 13:10:11;;;;;;;9.40;4.35;;;;;;;;;;4906833;29;20063;-72
2021/09/02 13:12:38;;;;;;;4.60;3.55;;;;;;;;;;4904485;29;20049;-70
2021/09/02 13:15:05;;;;;;;35.97;7.00;;;;;;;;;;4904752;29;20056;-72
2021/09/02 13:17:32;;;;;;;13.02;4.20;;;;;;;;;;4905660;29;20055;-71
2021/09/02 13:19:58;;;;;;;4.75;3.70;;;;;;;;;;4905539;29;20052;-71
2021/09/02 13:22:26;;;;;;;6.30;4.00;;;;;;;;;;4903257;29;20048;-70
2021/09/02 13:24:57;;;;;;;4.57;3.40;;;;;;;;;;4905309;29;20152;-74
2021/09/02 13:27:25;;;;;;;3.58;3.10;;;;;;;;;;4909856;29;20543;-63
2021/09/02 13:29:51;;;;;;;4.10;3.47;;;;;;;;;;4907467;29;20116;-67
2021/09/02 13:32:19;;;;;;;5.05;3.35;;;;;;;;;;4908137;29;20040;-62
2021/09/02 13:34:46;;;;;;;8.05;4.15;;;;;;;;;;4905419;29;20051;-62
2021/09/02 13:37:13;;;;;;;3.75;3.08;;;;;;;;;;4903766;29;20056;-63
2021/09/02 13:39:40;;;;;;;5.90;3.75;;;;;;;;;;4906014;29;20104;-63
2021/09/02 13:42:07;;;;;;;3.97;3.33;;;;;;;;;;4909989;29;20052;-63
2021/09/02 13:44:34;;;;;;;3.58;3.25;;;;;;;;;;4904355;29;20131;-65
2021/09/02 13:47:00;;;;;;;4.20;3.47;;;;;;;;;;4907886;29;20052;-63
2021/09/02 13:49:27;;;;;;;3.85;2.95;;;;;;;;;;4903854;29;20462;-63
2021/09/02 13:51:54;;;;;;;3.45;3.15;;;;;;;;;;4906224;29;20103;-63
2021/09/02 13:54:23;;;;;;;5.38;3.28;;;;;;;;;;4903488;29;20055;-64
2021/09/02 13:56:50;;;;;;;3.35;3.00;;;;;;;;;;4906154;29;20052;-63
2021/09/02 13:59:16;;;;;;;4.60;3.42;;;;;;;;;;4910193;29;20052;-66
2021/09/02 14:01:43;;;;;;;4.53;3.63;;;;;;;;;;4906042;29;20052;-62
2021/09/02 14:04:10;;;;;;;4.25;3.50;;;;;;;;;;4904749;29;20053;-62
2021/09/02 14:06:37;;;;;;;4.47;3.60;;;;;;;;;;4903145;29;20056;-63
2021/09/02 14:09:04;;;;;;;4.13;3.70;;;;;;;;;;4903956;29;20048;-64
2021/09/02 14:11:32;;;;;;;6.43;3.67;;;;;;;;;;4909181;29;20041;-63
2021/09/02 14:13:59;;;;;;;5.97;3.78;;;;;;;;;;4906922;29;20052;-63
2021/09/02 14:16:25;;;;;;;3.85;3.45;;;;;;;;;;4905124;29;20052;-62
2021/09/02 14:18:52;;;;;;;4.07;3.58;;;;;;;;;;4910570;29;20456;-63
2021/09/02 14:21:19;;;;;;;6.25;3.92;;;;;;;;;;4905248;29;20452;-63
2021/09/02 14:23:46;;;;;;;8.65;5.25;;;;;;;;;;4905260;29;20112;-63
2021/09/02 14:26:12;;;;;;;5.45;3.50;;;;;;;;;;4904881;29;20059;-63
2021/09/02 14:28:39;;;;;;;4.47;3.30;;;;;;;;;;4903370;29;20121;-63
2021/09/02 14:31:05;;;;;;;4.90;3.33;;;;;;;;;;4906315;29;20052;-63
2021/09/02 14:33:35;;;;;;;4.15;3.00;;;;;;;;;;4903174;29;20048;-63
2021/09/02 14:36:03;;;;;;;6.25;3.72;;;;;;;;;;4907348;29;20060;-62
2021/09/02 14:38:30;;;;;;;7.20;3.45;;;;;;;;;;4903827;29;20088;-63
2021/09/02 14:40:56;;;;;;;4.05;3.15;;;;;;;;;;4903267;29;20044;-63
2021/09/02 14:43:23;;;;;;;7.97;3.67;;;;;;;;;;4908500;29;20174;-63
2021/09/02 14:45:50;;;;;;;4.03;3.55;;;;;;;;;;4906616;29;20104;-63
2021/09/02 14:48:16;;;;;;;3.20;2.90;;;;;;;;;;4909176;29;20135;-63
2021/09/02 14:50:43;;;;;;;3.47;2.90;;;;;;;;;;4902522;29;20045;-63